Time;durP1;ratioP1;P1;durP2;ratioP2;P2;SDS_P1;SDS_P2;PMS_P1;PMS_P2;Temp;Humidity;BMP_temperature;BMP_pressure;BME280_temperature;BME280_humidity;BME280_pressure;Samples;Min_cycle;Max_cycle;Signal;HPM_P1;HPM_P2
2023/04/17 00:02:01;;;;;;;19.25;12.63;;;7.80;99.90;;;;;;5066100;28;20074;-49
2023/04/17 00:04:27;;;;;;;21.60;13.65;;;7.80;99.90;;;;;;5073640;28;20040;-51
2023/04/17 00:06:53;;;;;;;27.13;16.50;;;7.80;99.90;;;;;;5061766;28;20552;-50
2023/04/17 00:09:18;;;;;;;25.90;15.32;;;7.70;99.90;;;;;;5080603;28;20077;-51
2023/04/17 00:11:44;;;;;;;24.73;14.80;;;7.70;99.90;;;;;;5074040;28;20028;-48
2023/04/17 00:14:10;;;;;;;24.52;15.35;;;7.60;99.90;;;;;;5083261;28;20067;-52
2023/04/17 00:16:36;;;;;;;24.83;15.10;;;7.60;99.90;;;;;;5073987;28;20534;-53
2023/04/17 00:19:02;;;;;;;22.38;14.77;;;7.60;99.90;;;;;;5069003;28;20036;-50
2023/04/17 00:21:28;;;;;;;21.23;15.23;;;7.60;99.90;;;;;;5078162;28;20123;-53
2023/04/17 00:23:54;;;;;;;22.35;13.55;;;7.50;99.90;;;;;;5068612;28;20020;-47
2023/04/17 00:26:20;;;;;;;19.75;13.45;;;7.50;99.90;;;;;;5079779;28;20132;-50
2023/04/17 00:28:49;;;;;;;18.58;12.80;;;7.50;99.90;;;;;;5068338;28;20040;-47
2023/04/17 00:31:15;;;;;;;22.17;13.88;;;7.50;99.90;;;;;;5084953;28;20024;-49
2023/04/17 00:33:41;;;;;;;19.48;13.18;;;7.50;99.90;;;;;;5080297;28;20045;-51
2023/04/17 00:36:07;;;;;;;24.98;15.07;;;7.50;99.90;;;;;;5085787;28;20400;-48
2023/04/17 00:38:33;;;;;;;26.13;14.93;;;7.50;99.90;;;;;;5088667;28;20145;-49
2023/04/17 00:40:59;;;;;;;24.50;15.10;;;7.50;99.90;;;;;;5068996;28;20498;-52
2023/04/17 00:43:24;;;;;;;23.50;15.18;;;7.50;99.90;;;;;;5087094;28;20507;-49
2023/04/17 00:45:52;;;;;;;25.25;16.25;;;7.50;99.90;;;;;;5069194;28;20061;-51
2023/04/17 00:48:22;;;;;;;27.13;17.13;;;7.40;99.90;;;;;;5087146;28;20031;-51
2023/04/17 00:50:48;;;;;;;28.75;17.92;;;7.40;99.90;;;;;;5050188;28;20033;-51
2023/04/17 00:53:15;;;;;;;26.75;17.08;;;7.30;99.90;;;;;;5091968;28;20042;-50
2023/04/17 00:55:43;;;;;;;23.35;15.65;;;7.30;99.90;;;;;;5070728;28;20107;-49
2023/04/17 00:58:09;;;;;;;26.25;17.88;;;7.20;99.90;;;;;;5092050;28;20032;-51
2023/04/17 01:00:35;;;;;;;23.70;16.05;;;7.20;99.90;;;;;;5070307;28;20029;-51
2023/04/17 01:03:01;;;;;;;29.58;18.40;;;7.20;99.90;;;;;;5092053;28;20210;-50
2023/04/17 01:05:27;;;;;;;29.33;17.17;;;7.20;99.90;;;;;;5074367;28;20040;-50
2023/04/17 01:07:55;;;;;;;28.75;17.98;;;7.20;99.90;;;;;;5070526;28;20035;-50
2023/04/17 01:10:21;;;;;;;27.30;17.52;;;7.20;99.90;;;;;;5091362;28;20026;-48
2023/04/17 01:12:50;;;;;;;28.70;16.30;;;7.20;99.90;;;;;;5070249;28;20266;-50
2023/04/17 01:15:16;;;;;;;27.92;17.77;;;7.20;99.90;;;;;;5090100;28;20092;-52
2023/04/17 01:17:41;;;;;;;27.98;17.42;;;7.20;99.90;;;;;;5070372;28;20024;-49
2023/04/17 01:20:09;;;;;;;26.05;16.83;;;7.20;99.90;;;;;;5090858;28;20574;-50
2023/04/17 01:22:35;;;;;;;27.33;16.77;;;7.10;99.90;;;;;;5069767;28;20020;-47
2023/04/17 01:25:00;;;;;;;29.70;18.52;;;7.20;99.90;;;;;;5090851;28;20506;-51
2023/04/17 01:27:26;;;;;;;31.63;17.73;;;7.20;99.90;;;;;;5069880;28;20413;-53
2023/04/17 01:29:52;;;;;;;24.83;15.93;;;7.10;99.90;;;;;;5090783;28;20059;-49
2023/04/17 01:32:17;;;;;;;31.83;17.67;;;7.10;99.90;;;;;;5069664;28;20036;-52
2023/04/17 01:34:43;;;;;;;30.95;16.83;;;7.10;99.90;;;;;;5090472;28;20055;-53
2023/04/17 01:37:08;;;;;;;24.23;16.25;;;7.10;99.90;;;;;;5069757;28;20028;-50
2023/04/17 01:39:35;;;;;;;23.00;15.82;;;7.10;99.90;;;;;;5090389;28;20492;-48
2023/04/17 01:42:00;;;;;;;24.63;16.83;;;7.10;99.90;;;;;;5069543;28;20074;-49
2023/04/17 01:44:26;;;;;;;24.48;16.20;;;7.10;99.90;;;;;;5088266;28;20036;-47
2023/04/17 01:46:51;;;;;;;24.50;14.95;;;7.10;99.90;;;;;;5070859;28;20110;-54
2023/04/17 01:49:17;;;;;;;26.95;16.38;;;7.10;99.90;;;;;;5087952;28;20073;-55
2023/04/17 01:51:42;;;;;;;23.50;14.85;;;7.10;99.90;;;;;;5069950;28;20058;-54
2023/04/17 01:54:08;;;;;;;27.25;16.58;;;7.00;99.90;;;;;;5087835;28;20429;-53
2023/04/17 01:56:34;;;;;;;27.95;16.42;;;7.00;99.90;;;;;;5090923;28;20030;-55
2023/04/17 01:58:59;;;;;;;23.02;16.45;;;6.90;99.90;;;;;;5075576;28;20594;-57
2023/04/17 02:01:25;;;;;;;22.80;14.73;;;7.00;99.90;;;;;;5090731;28;20031;-54
2023/04/17 02:03:50;;;;;;;21.90;15.50;;;6.90;99.90;;;;;;5072395;28;20388;-56
2023/04/17 02:06:16;;;;;;;23.20;15.25;;;6.90;99.90;;;;;;5069689;28;20033;-54
2023/04/17 02:08:41;;;;;;;24.98;14.90;;;7.00;99.90;;;;;;5087750;28;20020;-56
2023/04/17 02:11:07;;;;;;;24.63;14.90;;;6.90;99.90;;;;;;5090534;28;20085;-56
2023/04/17 02:13:32;;;;;;;24.55;15.23;;;6.90;99.90;;;;;;5071560;28;21097;-56
2023/04/17 02:15:58;;;;;;;20.88;14.80;;;6.90;99.90;;;;;;5090554;28;20036;-56
2023/04/17 02:18:23;;;;;;;26.42;15.60;;;6.80;99.90;;;;;;5070187;28;20036;-54
2023/04/17 02:20:49;;;;;;;24.98;16.15;;;6.80;99.90;;;;;;5089133;28;20115;-56
2023/04/17 02:23:14;;;;;;;24.13;15.00;;;6.80;99.90;;;;;;5068767;28;20111;-56
2023/04/17 02:25:40;;;;;;;22.70;14.82;;;6.70;99.90;;;;;;5090325;28;20028;-55
2023/04/17 02:28:05;;;;;;;25.00;17.02;;;6.70;99.90;;;;;;5070400;28;20081;-57
2023/04/17 02:30:31;;;;;;;24.48;13.77;;;6.70;99.90;;;;;;5087711;28;20080;-55
2023/04/17 02:32:57;;;;;;;22.50;13.43;;;6.60;99.90;;;;;;5087994;28;20024;-56
2023/04/17 02:35:25;;;;;;;25.35;15.75;;;6.60;99.90;;;;;;5068190;28;20032;-55
2023/04/17 02:37:51;;;;;;;21.35;13.07;;;6.60;99.90;;;;;;5089797;28;20405;-53
2023/04/17 02:40:17;;;;;;;24.05;12.90;;;6.60;99.90;;;;;;5068573;28;20031;-56
2023/04/17 02:42:42;;;;;;;24.25;14.52;;;6.50;99.90;;;;;;5089366;28;20028;-55
2023/04/17 02:45:09;;;;;;;22.98;13.30;;;6.50;99.90;;;;;;5068253;28;20040;-55
2023/04/17 02:47:35;;;;;;;22.95;13.07;;;6.50;99.90;;;;;;5089300;28;20488;-55
2023/04/17 02:50:00;;;;;;;18.33;11.30;;;6.50;99.90;;;;;;5068263;28;20035;-55
2023/04/17 02:52:30;;;;;;;19.75;12.27;;;6.40;99.90;;;;;;5088976;28;20131;-56
2023/04/17 02:54:56;;;;;;;19.02;11.52;;;6.40;99.90;;;;;;5067978;28;20564;-56
2023/04/17 02:57:24;;;;;;;25.80;14.15;;;6.40;99.90;;;;;;5088786;28;20128;-54
2023/04/17 02:59:50;;;;;;;26.83;15.13;;;6.30;99.90;;;;;;5067691;28;20036;-56
2023/04/17 03:02:20;;;;;;;21.35;13.20;;;6.30;99.90;;;;;;5088823;28;20035;-56
2023/04/17 03:04:48;;;;;;;21.38;14.40;;;6.20;99.90;;;;;;5069684;28;20082;-56
2023/04/17 03:07:16;;;;;;;23.45;14.60;;;6.20;99.90;;;;;;5084409;28;20032;-54
2023/04/17 03:09:44;;;;;;;24.35;13.60;;;6.20;99.90;;;;;;5067381;28;20025;-56
2023/04/17 03:12:10;;;;;;;24.17;12.70;;;6.10;99.90;;;;;;5088997;28;20020;-56
2023/04/17 03:14:35;;;;;;;20.58;14.32;;;6.20;99.90;;;;;;5067495;28;20721;-56
2023/04/17 03:17:00;;;;;;;27.65;14.82;;;6.10;99.90;;;;;;5088232;28;20028;-54
2023/04/17 03:19:26;;;;;;;36.88;17.80;;;6.10;99.90;;;;;;5067717;28;20381;-53
2023/04/17 03:21:51;;;;;;;26.70;16.35;;;6.10;99.90;;;;;;5088464;28;20024;-57
2023/04/17 03:24:17;;;;;;;30.23;17.60;;;6.10;99.90;;;;;;5065769;28;20443;-55
2023/04/17 03:26:42;;;;;;;28.25;16.50;;;6.10;99.90;;;;;;5068877;28;20496;-55
2023/04/17 03:29:08;;;;;;;26.30;16.15;;;6.00;99.90;;;;;;5086686;28;20122;-56
2023/04/17 03:31:33;;;;;;;22.83;15.30;;;6.00;99.90;;;;;;5089213;28;20081;-56
2023/04/17 03:33:59;;;;;;;27.73;16.85;;;6.00;99.90;;;;;;5077932;28;20072;-55
2023/04/17 03:36:25;;;;;;;27.60;15.55;;;6.00;99.90;;;;;;5069063;28;20044;-56
2023/04/17 03:38:51;;;;;;;26.00;15.75;;;6.00;99.90;;;;;;5086845;28;20024;-56
2023/04/17 03:41:16;;;;;;;25.30;15.10;;;6.00;99.90;;;;;;5088997;28;20388;-50
2023/04/17 03:43:42;;;;;;;25.75;15.52;;;6.00;99.90;;;;;;5067654;28;20035;-54
2023/04/17 03:46:07;;;;;;;30.27;16.52;;;6.00;99.90;;;;;;5088233;28;20585;-54
2023/04/17 03:48:33;;;;;;;25.73;15.20;;;6.00;99.90;;;;;;5067418;28;20056;-55
2023/04/17 03:50:58;;;;;;;27.38;17.50;;;6.00;99.90;;;;;;5088388;28;20031;-55
2023/04/17 03:53:24;;;;;;;26.90;15.70;;;6.00;99.90;;;;;;5077380;28;20627;-54
2023/04/17 03:55:49;;;;;;;27.20;16.60;;;6.00;99.90;;;;;;5069283;28;20020;-55
2023/04/17 03:58:15;;;;;;;26.52;15.88;;;5.90;99.90;;;;;;5077447;28;20388;-55
2023/04/17 04:00:40;;;;;;;23.92;14.65;;;5.90;99.90;;;;;;5087838;28;20063;-54
2023/04/17 04:03:06;;;;;;;30.92;17.48;;;5.90;99.90;;;;;;5074602;28;20396;-56
2023/04/17 04:05:31;;;;;;;29.42;15.50;;;5.80;99.90;;;;;;5078138;28;20618;-54
2023/04/17 04:07:57;;;;;;;22.00;15.05;;;5.80;99.90;;;;;;5079612;28;20508;-54
2023/04/17 04:10:22;;;;;;;24.15;14.98;;;5.80;99.90;;;;;;5068705;28;20060;-55
2023/04/17 04:12:48;;;;;;;26.55;16.45;;;5.80;99.90;;;;;;5085772;28;20054;-56
2023/04/17 04:15:13;;;;;;;23.13;14.40;;;5.90;99.90;;;;;;5088794;28;20037;-53
2023/04/17 04:17:39;;;;;;;26.08;15.38;;;5.90;99.90;;;;;;5070797;28;20039;-52
2023/04/17 04:20:07;;;;;;;26.75;17.42;;;5.90;99.90;;;;;;5085373;28;20103;-55
2023/04/17 04:22:33;;;;;;;30.52;18.55;;;5.90;99.90;;;;;;5068564;28;20024;-53
2023/04/17 04:24:59;;;;;;;27.55;15.90;;;5.90;99.90;;;;;;5078373;28;20381;-55
2023/04/17 04:27:26;;;;;;;26.55;17.83;;;5.90;99.90;;;;;;5070587;28;20044;-56
2023/04/17 04:29:52;;;;;;;32.33;19.27;;;5.90;99.90;;;;;;5074006;28;20024;-53
2023/04/17 04:32:17;;;;;;;32.40;18.13;;;5.90;99.90;;;;;;5080831;28;20035;-54
2023/04/17 04:34:43;;;;;;;29.50;18.08;;;5.90;99.90;;;;;;5089907;28;20504;-53
2023/04/17 04:37:14;;;;;;;28.15;16.77;;;5.90;99.90;;;;;;5092513;28;20024;-55
2023/04/17 04:39:39;;;;;;;29.42;17.67;;;6.00;99.90;;;;;;5053839;28;20035;-53
2023/04/17 04:42:08;;;;;;;26.15;15.93;;;6.00;99.90;;;;;;5092570;28;20028;-55
2023/04/17 04:44:35;;;;;;;26.85;16.58;;;6.00;99.90;;;;;;5070157;28;20670;-54
2023/04/17 04:47:01;;;;;;;29.63;16.90;;;6.10;99.90;;;;;;5091752;28;20066;-55
2023/04/17 04:49:26;;;;;;;25.23;16.52;;;6.10;99.90;;;;;;5070702;28;20400;-53
2023/04/17 04:51:52;;;;;;;28.00;17.92;;;6.20;99.90;;;;;;5085709;28;20032;-55
2023/04/17 04:54:17;;;;;;;29.98;18.95;;;6.20;99.90;;;;;;5084917;28;20026;-55
2023/04/17 04:56:43;;;;;;;32.38;19.05;;;6.10;99.90;;;;;;5071915;28;20050;-56
2023/04/17 04:59:10;;;;;;;34.20;20.27;;;6.20;99.90;;;;;;5089025;28;20020;-55
2023/04/17 05:01:35;;;;;;;31.35;19.60;;;6.10;99.90;;;;;;5078592;28;20107;-54
2023/04/17 05:04:01;;;;;;;32.70;20.20;;;6.10;99.90;;;;;;5071089;28;20575;-56
2023/04/17 05:06:27;;;;;;;34.08;21.52;;;6.20;99.90;;;;;;5076260;28;20056;-56
2023/04/17 05:08:52;;;;;;;36.53;22.50;;;6.20;99.90;;;;;;5088624;28;20111;-53
2023/04/17 05:11:18;;;;;;;36.63;20.77;;;6.20;99.90;;;;;;5075253;28;20472;-54
2023/04/17 05:13:43;;;;;;;33.63;20.80;;;6.20;99.90;;;;;;5090642;28;20031;-56
2023/04/17 05:16:09;;;;;;;39.42;22.90;;;6.30;99.90;;;;;;5068828;28;20486;-56
2023/04/17 05:18:34;;;;;;;33.63;23.23;;;6.20;99.90;;;;;;5069969;28;20040;-54
2023/04/17 05:21:00;;;;;;;33.88;22.05;;;6.30;99.90;;;;;;5075741;28;20048;-54
2023/04/17 05:23:27;;;;;;;35.10;23.42;;;6.40;99.90;;;;;;5089154;28;20024;-55
2023/04/17 05:25:52;;;;;;;40.80;22.90;;;6.50;99.90;;;;;;5068611;28;20142;-56
2023/04/17 05:28:18;;;;;;;38.00;23.33;;;6.40;99.90;;;;;;5071560;28;20025;-51
2023/04/17 05:30:44;;;;;;;39.17;24.95;;;6.40;99.90;;;;;;5069395;28;20316;-56
2023/04/17 05:33:09;;;;;;;37.17;23.75;;;6.30;99.90;;;;;;5072586;28;20044;-54
2023/04/17 05:35:35;;;;;;;40.83;25.67;;;6.30;99.90;;;;;;5067992;28;20023;-54
2023/04/17 05:38:02;;;;;;;46.88;26.33;;;6.30;99.90;;;;;;5068131;28;20045;-56
2023/04/17 05:40:28;;;;;;;44.80;27.30;;;6.30;99.90;;;;;;5087619;28;20039;-53
2023/04/17 05:42:53;;;;;;;45.97;26.42;;;6.30;99.90;;;;;;5066983;28;20023;-56
2023/04/17 05:45:19;;;;;;;41.13;26.27;;;6.40;99.90;;;;;;5076489;28;20036;-56
2023/04/17 05:47:45;;;;;;;40.38;24.05;;;6.40;99.90;;;;;;5067548;28;20032;-55
2023/04/17 05:50:10;;;;;;;47.25;27.77;;;6.50;99.90;;;;;;5089299;28;20024;-55
2023/04/17 05:52:36;;;;;;;45.40;28.58;;;6.50;99.90;;;;;;5068386;28;20065;-53
2023/04/17 05:55:02;;;;;;;41.30;24.98;;;6.50;99.90;;;;;;5089099;28;20174;-55
2023/04/17 05:57:28;;;;;;;48.33;27.95;;;6.60;99.90;;;;;;5067930;28;20104;-56
2023/04/17 05:59:53;;;;;;;39.75;25.08;;;6.70;99.90;;;;;;5070243;28;20563;-55
2023/04/17 06:02:19;;;;;;;38.08;24.77;;;6.80;99.90;;;;;;5081103;28;20035;-57
2023/04/17 06:04:45;;;;;;;39.88;23.83;;;6.90;99.90;;;;;;5066126;28;20032;-53
2023/04/17 06:07:11;;;;;;;42.47;26.20;;;7.00;99.90;;;;;;5084039;28;20446;-54
2023/04/17 06:09:37;;;;;;;45.38;28.55;;;7.10;99.90;;;;;;5068354;28;20029;-56
2023/04/17 06:12:03;;;;;;;47.67;27.52;;;7.10;99.90;;;;;;5088792;28;20040;-55
2023/04/17 06:14:29;;;;;;;50.10;29.52;;;7.10;99.90;;;;;;5067525;28;20040;-54
2023/04/17 06:16:54;;;;;;;50.72;31.00;;;7.10;99.90;;;;;;5088577;28;20379;-55
2023/04/17 06:19:21;;;;;;;50.10;28.10;;;7.20;99.90;;;;;;5066453;28;20029;-55
2023/04/17 06:21:47;;;;;;;45.17;27.00;;;7.10;99.90;;;;;;5088631;28;20032;-56
2023/04/17 06:24:12;;;;;;;40.97;25.23;;;7.20;99.90;;;;;;5077614;28;20032;-54
2023/04/17 06:26:37;;;;;;;49.35;28.33;;;7.20;99.90;;;;;;5066688;28;20485;-56
2023/04/17 06:29:03;;;;;;;48.03;26.98;;;7.20;99.90;;;;;;5088211;28;20039;-57
2023/04/17 06:31:29;;;;;;;47.45;26.67;;;7.20;99.90;;;;;;5067311;28;20024;-56
2023/04/17 06:33:54;;;;;;;45.00;27.33;;;7.20;99.90;;;;;;5075773;28;20052;-56
2023/04/17 06:36:20;;;;;;;46.08;28.23;;;7.20;99.90;;;;;;5076709;28;20590;-54
2023/04/17 06:38:46;;;;;;;41.22;25.38;;;7.10;99.90;;;;;;5088045;28;20086;-56
2023/04/17 06:41:11;;;;;;;43.42;27.42;;;7.20;99.90;;;;;;5075646;28;20036;-55
2023/04/17 06:43:37;;;;;;;44.60;26.08;;;7.10;99.90;;;;;;5064208;28;20409;-57
2023/04/17 06:46:02;;;;;;;43.58;24.63;;;7.20;99.90;;;;;;5086523;28;20043;-56
2023/04/17 06:48:28;;;;;;;40.08;22.92;;;7.20;99.90;;;;;;5089353;28;20110;-53
2023/04/17 06:50:53;;;;;;;38.65;24.27;;;7.20;99.90;;;;;;5067682;28;20133;-55
2023/04/17 06:53:20;;;;;;;40.72;25.10;;;7.30;99.90;;;;;;5088442;28;20032;-57
2023/04/17 06:55:45;;;;;;;41.10;25.05;;;7.40;99.90;;;;;;5067602;28;20032;-57
2023/04/17 06:58:12;;;;;;;38.72;22.85;;;7.40;99.90;;;;;;5088377;28;20047;-56
2023/04/17 07:00:37;;;;;;;39.05;23.08;;;7.50;99.90;;;;;;5067713;28;20086;-55
2023/04/17 07:03:04;;;;;;;40.20;23.27;;;7.50;99.90;;;;;;5088060;28;20574;-54
2023/04/17 07:05:29;;;;;;;37.90;19.65;;;7.50;99.90;;;;;;5072429;28;20032;-51
2023/04/17 07:07:55;;;;;;;41.78;22.38;;;7.70;99.90;;;;;;5069014;28;20550;-54
2023/04/17 07:10:20;;;;;;;35.97;22.50;;;7.80;99.90;;;;;;5086292;28;20062;-51
2023/04/17 07:12:46;;;;;;;39.80;24.10;;;7.90;99.90;;;;;;5088652;28;20063;-53
2023/04/17 07:15:11;;;;;;;39.88;25.55;;;7.80;99.90;;;;;;5077766;28;20496;-49
2023/04/17 07:17:37;;;;;;;31.83;21.15;;;7.80;99.90;;;;;;5069034;28;20051;-52
2023/04/17 07:20:06;;;;;;;40.53;23.98;;;8.00;99.90;;;;;;5085975;28;20106;-54
2023/04/17 07:22:33;;;;;;;36.47;23.95;;;8.20;99.90;;;;;;5068239;28;20078;-54
2023/04/17 07:24:59;;;;;;;37.97;25.00;;;8.20;99.90;;;;;;5084739;28;20434;-53
2023/04/17 07:27:25;;;;;;;36.92;23.55;;;8.40;99.90;;;;;;5068767;28;20041;-51
2023/04/17 07:29:53;;;;;;;36.75;22.05;;;8.50;99.90;;;;;;5086170;28;20039;-54
2023/04/17 07:32:20;;;;;;;29.35;19.02;;;8.80;99.90;;;;;;5068294;28;20028;-54
2023/04/17 07:34:46;;;;;;;30.50;20.27;;;9.00;99.90;;;;;;5085782;28;20516;-54
2023/04/17 07:37:12;;;;;;;34.40;22.00;;;9.10;99.90;;;;;;5088326;28;20085;-54
2023/04/17 07:39:37;;;;;;;30.58;20.80;;;9.00;99.90;;;;;;5072696;28;20048;-53
2023/04/17 07:42:05;;;;;;;33.97;22.77;;;9.00;99.90;;;;;;5088137;28;20028;-55
2023/04/17 07:44:31;;;;;;;38.40;22.60;;;8.80;99.90;;;;;;5070135;28;20028;-53
2023/04/17 07:46:57;;;;;;;33.80;20.08;;;8.50;99.90;;;;;;5088366;28;20028;-54
2023/04/17 07:49:22;;;;;;;37.25;22.48;;;8.50;99.90;;;;;;5070510;28;20028;-48
2023/04/17 07:51:48;;;;;;;31.63;21.23;;;8.40;99.90;;;;;;5088417;28;20136;-54
2023/04/17 07:54:13;;;;;;;32.00;21.25;;;8.40;99.90;;;;;;5067972;28;20064;-44
2023/04/17 07:56:39;;;;;;;33.65;22.13;;;8.40;99.90;;;;;;5088280;28;20051;-47
2023/04/17 07:59:04;;;;;;;29.58;19.85;;;8.30;99.90;;;;;;5067840;28;20036;-47
2023/04/17 08:01:30;;;;;;;30.08;18.90;;;8.30;99.90;;;;;;5086207;28;20145;-45
2023/04/17 08:03:56;;;;;;;40.10;22.65;;;8.40;99.90;;;;;;5065355;28;20134;-44
2023/04/17 08:06:22;;;;;;;35.45;19.92;;;8.40;99.90;;;;;;5085401;28;20141;-48
2023/04/17 08:08:47;;;;;;;36.17;21.63;;;8.40;99.90;;;;;;5068328;28;20116;-44
2023/04/17 08:11:13;;;;;;;34.97;19.98;;;8.40;99.90;;;;;;5085289;28;20081;-48
2023/04/17 08:13:39;;;;;;;37.83;23.30;;;8.60;99.90;;;;;;5087879;28;20028;-43
2023/04/17 08:16:06;;;;;;;36.92;23.13;;;8.50;99.90;;;;;;5065032;28;20028;-46
2023/04/17 08:18:32;;;;;;;38.95;24.20;;;8.40;99.90;;;;;;5087229;28;20024;-44
2023/04/17 08:20:57;;;;;;;36.80;21.73;;;8.20;99.90;;;;;;5066235;28;20052;-45
2023/04/17 08:23:23;;;;;;;28.17;18.80;;;8.20;99.90;;;;;;5087033;28;20067;-44
2023/04/17 08:25:49;;;;;;;30.40;19.23;;;8.40;99.90;;;;;;5066289;28;20296;-44
2023/04/17 08:28:14;;;;;;;31.92;19.02;;;8.50;99.90;;;;;;5087064;28;20500;-48
2023/04/17 08:30:40;;;;;;;36.50;22.52;;;8.70;99.90;;;;;;5066442;28;20028;-46
2023/04/17 08:33:05;;;;;;;36.28;23.35;;;8.60;99.90;;;;;;5083717;28;20111;-45
2023/04/17 08:35:31;;;;;;;35.17;20.15;;;8.40;99.90;;;;;;5079259;28;20032;-43
2023/04/17 08:37:58;;;;;;;28.73;18.58;;;8.50;99.90;;;;;;5068153;28;20555;-43
2023/04/17 08:40:25;;;;;;;33.95;20.70;;;8.50;99.90;;;;;;5085538;28;20016;-47
2023/04/17 08:42:51;;;;;;;30.70;18.58;;;8.50;99.90;;;;;;5087533;28;20051;-42
2023/04/17 08:45:19;;;;;;;36.15;21.63;;;8.60;99.90;;;;;;5066138;28;20020;-45
2023/04/17 08:47:45;;;;;;;31.10;19.40;;;8.50;99.90;;;;;;5087163;28;20051;-48
2023/04/17 08:50:15;;;;;;;32.60;20.00;;;8.70;99.90;;;;;;5076536;28;20036;-45
2023/04/17 08:52:42;;;;;;;32.15;19.70;;;8.90;99.90;;;;;;5067683;28;20012;-45
2023/04/17 08:55:10;;;;;;;31.83;18.60;;;9.10;99.90;;;;;;5085096;28;20032;-46
2023/04/17 08:57:52;;;;;;;29.65;16.67;;;9.50;99.90;;;;;;5067652;28;20021;-46
2023/04/17 09:00:26;;;;;;;31.48;20.63;;;9.90;99.90;;;;;;5066976;28;20032;-45
2023/04/17 09:02:54;;;;;;;32.90;21.05;;;9.90;99.90;;;;;;5047425;28;20389;-47
2023/04/17 09:05:21;;;;;;;31.90;19.92;;;9.80;99.90;;;;;;5078872;28;20089;-46
2023/04/17 09:07:48;;;;;;;31.35;19.33;;;9.80;99.90;;;;;;5067347;28;20024;-46
2023/04/17 09:10:15;;;;;;;34.58;18.70;;;9.80;98.60;;;;;;5083915;28;20039;-46
2023/04/17 09:12:40;;;;;;;28.23;18.05;;;9.90;99.90;;;;;;5067463;28;20524;-49
2023/04/17 09:15:16;;;;;;;27.83;18.83;;;10.10;99.60;;;;;;5088008;28;20028;-45
2023/04/17 09:17:41;;;;;;;31.65;18.83;;;10.00;97.50;;;;;;5071024;28;20028;-45
2023/04/17 09:20:10;;;;;;;30.83;19.60;;;10.10;97.30;;;;;;5088172;28;20046;-44
2023/04/17 09:22:37;;;;;;;26.83;16.65;;;10.30;94.90;;;;;;5070740;28;20044;-46
2023/04/17 09:25:03;;;;;;;25.90;16.67;;;10.70;95.80;;;;;;5088312;28;20051;-44
2023/04/17 09:27:28;;;;;;;32.83;20.52;;;11.10;93.60;;;;;;5070672;28;20040;-43
2023/04/17 09:30:00;;;;;;;28.42;18.27;;;11.00;86.60;;;;;;5088202;28;20028;-46
2023/04/17 09:32:26;;;;;;;28.90;19.52;;;10.50;93.10;;;;;;5070387;28;20036;-44
2023/04/17 09:34:53;;;;;;;24.23;16.95;;;10.30;93.10;;;;;;5087721;28;20131;-43
2023/04/17 09:37:19;;;;;;;33.92;20.65;;;10.20;94.20;;;;;;5070862;28;20032;-46
2023/04/17 09:40:05;;;;;;;37.67;22.55;;;9.80;94.40;;;;;;5087882;28;20089;-45
2023/04/17 09:42:31;;;;;;;25.95;17.17;;;9.60;95.90;;;;;;5050265;28;20039;-47
2023/04/17 09:44:56;;;;;;;31.27;19.38;;;9.70;98.70;;;;;;5087167;28;20035;-44
2023/04/17 09:47:22;;;;;;;34.38;21.10;;;9.50;97.60;;;;;;5070554;28;20036;-45
2023/04/17 09:49:51;;;;;;;37.05;21.73;;;9.50;97.10;;;;;;5087751;28;20040;-49
2023/04/17 09:52:22;;;;;;;42.70;22.80;;;9.30;97.60;;;;;;5090681;28;20028;-50
2023/04/17 09:54:50;;;;;;;36.38;21.00;;;9.10;99.90;;;;;;5062906;28;20016;-46
2023/04/17 09:57:16;;;;;;;36.20;21.98;;;9.00;99.90;;;;;;5090219;28;20052;-49
2023/04/17 09:59:49;;;;;;;35.20;20.88;;;9.00;99.90;;;;;;5075226;28;20542;-47
2023/04/17 10:02:16;;;;;;;34.05;20.80;;;9.10;99.90;;;;;;5090103;28;20254;-46
2023/04/17 10:04:44;;;;;;;32.35;21.63;;;9.10;99.90;;;;;;5069260;28;20042;-44
2023/04/17 10:07:11;;;;;;;31.10;19.95;;;9.10;99.90;;;;;;5090202;28;20078;-44
2023/04/17 10:09:38;;;;;;;45.92;26.55;;;9.30;99.90;;;;;;5073837;28;20126;-43
2023/04/17 10:12:04;;;;;;;40.97;22.65;;;9.40;98.90;;;;;;5089767;28;20027;-46
2023/04/17 10:14:32;;;;;;;33.70;19.88;;;9.40;99.90;;;;;;5073045;28;20035;-46
2023/04/17 10:16:58;;;;;;;36.88;22.00;;;9.70;99.30;;;;;;5089818;28;20031;-44
2023/04/17 10:19:29;;;;;;;31.70;19.77;;;9.80;96.50;;;;;;5072038;28;20028;-44
2023/04/17 10:22:19;;;;;;;30.30;20.88;;;9.80;96.60;;;;;;5089836;28;20020;-44
2023/04/17 10:25:11;;;;;;;31.85;19.58;;;9.90;98.30;;;;;;5061063;28;20035;-46
2023/04/17 10:27:37;;;;;;;31.52;19.75;;;10.20;96.40;;;;;;5089402;28;20082;-44
2023/04/17 10:30:11;;;;;;;34.95;20.83;;;10.30;94.80;;;;;;5077267;28;20063;-47
2023/04/17 10:32:38;;;;;;;35.78;22.58;;;10.10;93.90;;;;;;5069449;28;20035;-45
2023/04/17 10:35:16;;;;;;;36.72;21.80;;;9.90;94.20;;;;;;5086782;28;20500;-43
2023/04/17 10:37:50;;;;;;;40.47;22.88;;;9.80;96.00;;;;;;5069787;28;20768;-50
2023/04/17 10:40:21;;;;;;;35.88;22.45;;;9.60;96.20;;;;;;5087049;28;20040;-48
2023/04/17 10:43:05;;;;;;;40.85;24.10;;;9.50;97.90;;;;;;5069191;28;20028;-45
2023/04/17 10:46:02;;;;;;;37.17;21.60;;;9.40;99.90;;;;;;5086848;28;20036;-47
2023/04/17 10:48:40;;;;;;;37.03;20.77;;;9.70;98.80;;;;;;5089323;28;20089;-45
2023/04/17 10:51:21;;;;;;;41.03;25.85;;;9.90;98.70;;;;;;5083499;28;20052;-46
2023/04/17 10:53:49;;;;;;;54.22;30.58;;;10.00;96.90;;;;;;5089094;28;20516;-45
2023/04/17 10:56:29;;;;;;;42.53;26.02;;;9.60;97.30;;;;;;5067233;28;20036;-47
2023/04/17 10:59:15;;;;;;;53.67;29.85;;;9.40;99.90;;;;;;5048559;28;20037;-43
2023/04/17 11:01:47;;;;;;;47.83;27.98;;;9.30;99.90;;;;;;5048793;28;20049;-44
2023/04/17 11:04:20;;;;;;;62.60;33.50;;;9.20;99.90;;;;;;5085509;28;20194;-43
2023/04/17 11:06:47;;;;;;;57.03;30.88;;;9.20;99.90;;;;;;5083530;28;20438;-43
2023/04/17 11:09:13;;;;;;;62.97;33.80;;;9.10;99.90;;;;;;5069404;28;20188;-46
2023/04/17 11:11:41;;;;;;;59.10;33.15;;;9.00;99.90;;;;;;5088883;28;20065;-44
2023/04/17 11:14:09;;;;;;;56.28;31.38;;;8.60;99.90;;;;;;5068654;28;20127;-45
2023/04/17 11:16:37;;;;;;;58.65;31.20;;;8.60;99.90;;;;;;5088815;28;20031;-48
2023/04/17 11:19:04;;;;;;;53.72;28.73;;;8.80;99.90;;;;;;5067916;28;20024;-46
2023/04/17 11:21:30;;;;;;;47.92;27.08;;;8.90;99.90;;;;;;5088537;28;20012;-45
2023/04/17 11:23:55;;;;;;;43.08;26.00;;;9.00;99.90;;;;;;5067063;28;20514;-44
2023/04/17 11:26:22;;;;;;;49.80;27.52;;;9.20;99.90;;;;;;5088338;28;20495;-48
2023/04/17 11:28:47;;;;;;;50.65;29.48;;;9.20;99.90;;;;;;5068639;28;20074;-48
2023/04/17 11:31:13;;;;;;;46.03;25.10;;;9.10;99.90;;;;;;5085968;28;20309;-48
2023/04/17 11:33:39;;;;;;;49.15;27.95;;;9.10;99.90;;;;;;5080348;28;20119;-50
2023/04/17 11:36:06;;;;;;;48.78;26.52;;;9.10;99.90;;;;;;5083808;28;20024;-50
2023/04/17 11:38:32;;;;;;;49.20;26.67;;;9.10;99.90;;;;;;5068583;28;20154;-47
2023/04/17 11:41:00;;;;;;;42.00;26.90;;;9.10;99.90;;;;;;5086039;28;20048;-50
2023/04/17 11:43:28;;;;;;;44.28;26.67;;;9.10;99.90;;;;;;5088217;28;20491;-49
2023/04/17 11:45:58;;;;;;;45.40;26.45;;;9.10;99.90;;;;;;5066614;28;20493;-45
2023/04/17 11:48:26;;;;;;;43.78;25.92;;;9.00;99.90;;;;;;5087788;28;20077;-48
2023/04/17 11:50:56;;;;;;;48.53;29.38;;;9.00;99.90;;;;;;5066311;28;20485;-47
2023/04/17 11:53:23;;;;;;;48.08;28.67;;;8.80;99.90;;;;;;5087609;28;20131;-47
2023/04/17 11:56:13;;;;;;;53.38;30.40;;;8.80;99.90;;;;;;5066816;28;20392;-46
2023/04/17 11:58:46;;;;;;;52.78;29.45;;;8.60;99.90;;;;;;5048152;28;20052;-47
2023/04/17 12:01:12;;;;;;;50.88;31.63;;;8.40;99.90;;;;;;5085363;28;20165;-45
2023/04/17 12:03:38;;;;;;;53.65;31.08;;;8.40;99.90;;;;;;5087910;28;20016;-46
2023/04/17 12:06:05;;;;;;;59.92;34.15;;;8.30;99.90;;;;;;5063168;28;20037;-45
2023/04/17 12:09:01;;;;;;;56.95;31.52;;;8.20;99.90;;;;;;5087207;28;20377;-48
2023/04/17 12:11:34;;;;;;;54.72;31.45;;;8.30;99.90;;;;;;5047870;28;20029;-50
2023/04/17 12:14:01;;;;;;;53.55;31.58;;;8.30;99.90;;;;;;5085950;28;20020;-47
2023/04/17 12:16:28;;;;;;;52.30;31.02;;;8.30;99.90;;;;;;5087904;28;20031;-46
2023/04/17 12:18:54;;;;;;;53.47;30.13;;;8.40;99.90;;;;;;5068321;28;20029;-47
2023/04/17 12:21:20;;;;;;;56.50;32.65;;;8.50;99.90;;;;;;5086277;28;20028;-48
2023/04/17 12:23:46;;;;;;;53.60;31.45;;;8.40;99.90;;;;;;5068333;28;20492;-47
2023/04/17 12:26:12;;;;;;;51.42;30.33;;;8.50;99.90;;;;;;5085287;28;20020;-47
2023/04/17 12:28:37;;;;;;;49.70;29.70;;;8.60;99.90;;;;;;5086476;28;20028;-50
2023/04/17 12:31:03;;;;;;;46.15;26.88;;;8.70;99.90;;;;;;5066654;28;20025;-49
2023/04/17 12:33:30;;;;;;;44.03;27.98;;;8.90;99.90;;;;;;5079192;28;20044;-48
2023/04/17 12:35:55;;;;;;;39.20;24.85;;;9.10;99.90;;;;;;5082755;28;20036;-47